Lingleville, TX (76461)

9:27 AM CDT on October 22, 2014 (GMT -0500)
Peaceable Kingdom | Change Station
CLOSE
Current Station
Personal Weather Station
Location: Stephenville, TX
Elevation: 1390 ft
Nearby Weather Stations

Elev 1390 ft 32.22 °N, 98.24 °W | Updated 22 seconds ago

Partly Cloudy
Partly Cloudy
62.8 °F
Feels Like 62.8 °F
N
0.0
Wind Variable Wind from North
Gusts 0.0 mph

Today
High -- | Low -- °F
--% Chance of Precip.
Yesterday
High -- | Low -- °F
Precip. -- in
7:42 AM 6:52 PM
Waning Crescent, 2% visible
Pressure 30.17 in
Visibility 10.0 miles
Clouds Clear
Dew Point 59 °F
Humidity 88%
Rainfall 0.00 in
Snow Depth Not available.
UV 1 out of 12
Pollen 5.70 out of 12
Air Quality Not available.
Flu Activity Sporadic
METAR KSEP 221415Z AUTO 00000KT 10SM CLR 16/14 A3017 RMK AO2 T01590135

More Conditions Fewer Conditions

Pressure 30.17 in
Visibility 10.0 miles
Clouds Clear
Dew Point 59 °F
Humidity 88%
Rainfall 0.00 in
Snow Depth Not available.
UV 1 out of 12
Pollen 5.70 out of 12
Air Quality Not available.
Flu Activity Sporadic
METAR KSEP 221415Z AUTO 00000KT 10SM CLR 16/14 A3017 RMK AO2 T01590135

More Conditions Fewer Conditions

10-Day Weather Forecast

Almanac

Astronomy

Oct. 22, 2014 Rise Set
Actual Time 7:42 AM CDT 6:52 PM CDT
Civil Twilight 7:17 AM CDT 7:17 PM CDT
Nautical Twilight 6:48 AM CDT 7:46 PM CDT
Astronomical Twilight 6:20 AM CDT 8:14 PM CDT
Moon 6:29 AM CDT 6:17 PM CDT
Length of Visible Light 12h 00m
Length of Day
11h 10m
Tomorrow will be 1m 51s shorter.
Waning Crescent, 2% of the Moon is Illuminated
Today
Waning Crescent
Oct 23
New
Oct 30
First Quarter
Nov 6
Full
Nov 14
Last Quarter

Today's Extremes

State Highs State Lows

Community

WunderPhotos

Upload Photos

1,763,927 photos uploaded!

WunderBlogs® & News

Nearby

Snow Depth

Station Depth Elevation
No new snow has been reported.

Earthquake Activity

City Distance Mag. Time & Date
No recent earthquake activity has been reported nearby.
Minimum magnitude displayed is 2.5.

Coastal Water Temperatures

Place Temperature
No Stations Reporting

Nearby Weather Stations